Flight Track Log - Related Links

Times and Time Zones

All times are in EST time to prevent confusion due to time zone crossing. See the USC3802 flight status page for this flight to view local times or setup timezone preferences in your user account.

Time Position Orientation Groundspeed Altitude Reporting Facility
EST Latitude Longitude Course Direction KTS MPH feet Rate Location/Type
Tue 08:26:55 AM 37.6394 -97.4328 172° South 101 116 1,900  Level Kansas City Center
Tue 08:27:32 AM 37.6231 -97.4297 89° East 113 130 3,000 1,608 Climbing Kansas City Center
Tue 08:28:32 AM 37.6239 -97.3878 15° North 119 137 4,500 1,438 Climbing Kansas City Center
Tue 08:29:33 AM 37.6514 -97.3783 15° North 98 113 5,900 1,230 Climbing Kansas City Center
Tue 08:30:34 AM 37.6786 -97.3689 21° North 111 128 7,000 496 Climbing Kansas City Center
Tue 08:31:34 AM 37.7250 -97.3469 15° North 169 194 6,900 -50 Descending Kansas City Center
Tue 08:32:35 AM 37.7733 -97.3303 20° North 177 204 6,900  Level Kansas City Center
Tue 08:33:36 AM 37.8197 -97.3083 20° North 181 208 6,900 51 Level Kansas City Center
Tue 08:34:32 AM 37.8619 -97.2889 16° North 188 216 7,000 52 Climbing Kansas City Center
Tue 08:35:32 AM 37.9083 -97.2722 16° North 188 216 7,000  Level Kansas City Center
Tue 08:36:32 AM 37.9544 -97.2556 17° North 188 216 7,000  Level Kansas City Center
Tue 08:37:32 AM 38.0031 -97.2361 19° North 183 211 7,000  Level Kansas City Center
Tue 08:38:32 AM 38.0472 -97.2167 16° North 177 204 7,000  Level Kansas City Center
Tue 08:39:32 AM 38.0933 -97.2000 14° North 172 198 7,000  Level Kansas City Center
Tue 08:40:32 AM 38.1397 -97.1858 18° North 167 192 7,000  Level Kansas City Center
Tue 08:41:32 AM 38.1861 -97.1664 14° North 167 192 7,000  Level Kansas City Center
Tue 08:42:32 AM 38.2322 -97.1522 19° North 167 192 7,000  Level Kansas City Center
Tue 08:43:32 AM 38.2764 -97.1325 19° North 167 192 7,000  Level Kansas City Center
Tue 08:44:32 AM 38.3206 -97.1128 20° North 167 192 7,000  Level Kansas City Center
Tue 08:45:32 AM 38.3628 -97.0933 13° North 167 192 7,000  Level Kansas City Center
Tue 08:46:32 AM 38.4111 -97.0789 19° North 167 192 7,000 -50 Level Kansas City Center
Tue 08:47:32 AM 38.4617 -97.0569 19° North 167 192 6,900 -50 Descending Kansas City Center
Tue 08:48:32 AM 38.5078 -97.0372 17° North 167 192 6,900  Level Kansas City Center
Tue 08:49:32 AM 38.5519 -97.0203 15° North 167 192 6,900  Level Kansas City Center
Tue 08:50:32 AM 38.5939 -97.0056 16° North 167 192 6,900  Level Kansas City Center
Tue 08:51:32 AM 38.6403 -96.9886 17° North 167 192 6,900  Level Kansas City Center
Tue 08:52:32 AM 38.6906 -96.9692 19° North 167 192 6,900  Level Kansas City Center
Tue 08:53:32 AM 38.7350 -96.9492 16° North 167 192 6,900  Level Kansas City Center
Tue 08:54:32 AM 38.7811 -96.9322 15° North 167 192 6,900  Level Kansas City Center
Tue 08:55:32 AM 38.8231 -96.9175 16° North 167 192 6,900  Level Kansas City Center
Tue 08:56:32 AM 38.8692 -96.9003 16° North 167 192 6,900  Level Kansas City Center
Tue 08:57:32 AM 38.9217 -96.8808 19° North 167 192 6,900  Level Kansas City Center
Tue 08:58:32 AM 38.9681 -96.8608 16° North 167 192 6,900  Level Kansas City Center
Tue 08:59:32 AM 39.0142 -96.8436 17° North 167 192 6,900  Level Kansas City Center
Tue 09:00:32 AM 39.0583 -96.8264 18° North 172 198 6,900  Level Kansas City Center
Tue 09:01:32 AM 39.1108 -96.8039 18° North 172 198 6,900  Level Kansas City Center
Tue 09:02:32 AM 39.1592 -96.7842 18° North 172 198 6,900  Level Kansas City Center
Tue 09:03:32 AM 39.2056 -96.7642 17° North 172 198 6,900  Level Kansas City Center
Tue 09:04:32 AM 39.2558 -96.7442 15° North 172 198 6,900  Level Kansas City Center
Tue 09:05:32 AM 39.2978 -96.7294 16° North 172 198 6,900  Level Kansas City Center
Tue 09:06:32 AM 39.3439 -96.7122 18° North 172 198 6,900  Level Kansas City Center
Tue 09:07:32 AM 39.3986 -96.6894 20° North 172 198 6,900  Level Kansas City Center
Tue 09:08:32 AM 39.4469 -96.6669 20° North 172 198 6,900  Level Kansas City Center
Tue 09:09:32 AM 39.4953 -96.6442 15° North 172 198 6,900  Level Kansas City Center
Tue 09:10:32 AM 39.5394 -96.6292 16° North 177 204 6,900  Level Kansas City Center
Tue 09:11:32 AM 39.5917 -96.6092 19° North 177 204 6,900 -35 Level Kansas City Center
Tue 09:13:22 AM 39.6828 -96.5692 16° North 187 215 6,800 35 Descending Minneapolis Center
Tue 09:14:22 AM 39.7269 -96.5522 17° North 187 215 7,000 100 Climbing Minneapolis Center
Tue 09:15:22 AM 39.7753 -96.5331 14° North 182 209 7,000  Level Minneapolis Center
Tue 09:16:22 AM 39.8256 -96.5167 18° North 182 209 7,000  Level Minneapolis Center
Tue 09:17:22 AM 39.8761 -96.4947 16° North 187 215 7,000  Level Minneapolis Center
Tue 09:18:22 AM 39.9264 -96.4756 18° North 187 215 7,000  Level Minneapolis Center
Tue 09:19:22 AM 39.9728 -96.4561 16° North 187 215 7,000  Level Minneapolis Center
Tue 09:20:22 AM 40.0233 -96.4369 21° North 187 215 7,000  Level Minneapolis Center
Tue 09:21:22 AM 40.0717 -96.4122 14° North 187 215 7,000  Level Minneapolis Center
Tue 09:22:22 AM 40.1219 -96.3956 21° North 187 215 7,000  Level Minneapolis Center
Tue 09:23:22 AM 40.1706 -96.3706 17° North 187 215 7,000  Level Minneapolis Center
Tue 09:24:22 AM 40.2189 -96.3511 16° North 187 215 7,000  Level Minneapolis Center
Tue 09:25:22 AM 40.2694 -96.3317 16° North 187 215 7,000  Level Minneapolis Center
Tue 09:26:22 AM 40.3197 -96.3122 16° North 187 215 7,000  Level Minneapolis Center
Tue 09:27:22 AM 40.3703 -96.2928 107° East 187 215 7,000  Level Minneapolis Center
Tue 09:27:25 AM 40.3664 -96.2764 North 187 215 7,000  Level Minneapolis Center
Tue 09:28:22 AM 40.4208 -96.2706 43° Northeast 187 215 7,000  Level Minneapolis Center
Tue 09:28:55 AM 40.4422 -96.2444 349° North 187 215 7,000  Level Minneapolis Center
Tue 09:29:22 AM 40.4692 -96.2511 36° Northeast 187 215 7,000  Level Minneapolis Center
Tue 09:30:02 AM 40.4967 -96.2250 347° North 186 214 7,000  Level Minneapolis Center
Tue 09:30:22 AM 40.5175 -96.2314 38° Northeast 187 215 7,000  Level Minneapolis Center
Tue 09:30:57 AM 40.5408 -96.2078 354° North 186 214 7,000  Level Minneapolis Center
Tue 09:31:22 AM 40.5678 -96.2117 33° Northeast 187 215 7,000  Level Minneapolis Center
Tue 09:32:03 AM 40.5956 -96.1883 352° North 185 213 7,000  Level Minneapolis Center
Tue 09:32:22 AM 40.6161 -96.1919 29° Northeast 187 215 7,000  Level Minneapolis Center
Tue 09:33:04 AM 40.6481 -96.1689 359° North 185 213 7,000  Level Minneapolis Center
Tue 09:33:22 AM 40.6644 -96.1694 29° Northeast 187 215 7,000  Level Minneapolis Center
Tue 09:34:05 AM 40.6964 -96.1464 359° North 186 214 7,000  Level Minneapolis Center
Tue 09:34:22 AM 40.7131 -96.1469 29° Northeast 187 215 7,000  Level Minneapolis Center
Tue 09:35:05 AM 40.7447 -96.1239 359° North 186 214 7,000  Level Minneapolis Center
Tue 09:35:22 AM 40.7614 -96.1244 24° Northeast 187 215 7,000  Level Minneapolis Center
Tue 09:36:06 AM 40.7953 -96.1042 359° North 186 214 7,000  Level Minneapolis Center
Tue 09:36:22 AM 40.8117 -96.1047 27° Northeast 187 215 7,000  Level Minneapolis Center
Tue 09:37:07 AM 40.8456 -96.0817 North 186 214 7,000  Level Minneapolis Center
Tue 09:37:22 AM 40.8603 -96.0794 28° Northeast 187 215 7,000  Level Minneapolis Center
Tue 09:37:55 AM 40.8856 -96.0614 359° North 186 214 7,000  Level Minneapolis Center
Tue 09:38:22 AM 40.9106 -96.0622 30° Northeast 187 215 7,000  Level Minneapolis Center
Tue 09:38:56 AM 40.9339 -96.0442 North 187 215 7,000  Level Minneapolis Center
Tue 09:39:22 AM 40.9589 -96.0397 16° North 187 215 7,000  Level Minneapolis Center
Tue 09:40:02 AM 40.9925 -96.0272 18° North 185 213 7,000 -200 Level Minneapolis Center
Tue 09:40:22 AM 41.0094 -96.0197 19° North 187 215 6,800 -764 Descending Minneapolis Center
Tue 09:40:57 AM 41.0367 -96.0072 18° North 193 222 6,300 -900 Descending Minneapolis Center
Tue 09:41:22 AM 41.0597 -95.9972 32° Northeast 187 215 5,900 -1,111 Descending Minneapolis Center
Tue 09:41:51 AM 41.0853 -95.9761 32° Northeast 208 239 5,300 -1,100 Descending Minneapolis Center
Tue 09:42:22 AM 41.1108 -95.9553 23° Northeast 194 223 4,800 -984 Descending Minneapolis Center
Tue 09:42:52 AM 41.1339 -95.9425 23° Northeast 203 234 4,300 -1,237 Descending Minneapolis Center
Tue 09:43:59 AM 41.1889 -95.9117 18° North 185 213 2,800 -1,041 Descending Minneapolis Center
Tue 09:44:53 AM 41.2244 -95.8964 North 170 196 2,200 -678 Descending Minneapolis Center
Tue 09:45:54 AM 41.2661 -95.8897 North 153 176 1,500 -689 Descending Minneapolis Center

Login

Don't have an account? Register now (free) for customized features, flight alerts, and more!